createdAt,value
2023-04-02T00:00:20.013Z,99696.59
2023-04-02T00:02:57.886Z,99696.06
2023-04-02T00:05:55.215Z,99704.78
2023-04-02T00:08:33.809Z,99700.19
2023-04-02T00:11:03.542Z,99705.75
2023-04-02T00:13:37.506Z,99710.72
2023-04-02T00:16:09.676Z,99715.06
2023-04-02T00:18:42.635Z,99715.88
2023-04-02T00:21:17.281Z,99721.97
2023-04-02T00:23:46.178Z,99722.78
2023-04-02T00:26:31.000Z,99724.22
2023-04-02T00:29:02.455Z,99733.09
2023-04-02T00:31:32.453Z,99730.59
2023-04-02T00:34:05.526Z,99735.72
2023-04-02T00:36:36.697Z,99749.88
2023-04-02T00:39:12.103Z,99743.22
2023-04-02T00:41:47.812Z,99744.19
2023-04-02T00:44:22.199Z,99749.06
2023-04-02T00:46:52.353Z,99745.19
2023-04-02T00:49:27.436Z,99749.34
2023-04-02T00:51:59.315Z,99744.88
2023-04-02T00:54:34.499Z,99753.09
2023-04-02T00:57:05.139Z,99755.31
2023-04-02T00:59:36.923Z,99763.09
2023-04-02T01:02:26.482Z,99760.44
2023-04-02T01:05:00.717Z,99761.84
2023-04-02T01:07:54.994Z,99763.78
2023-04-02T01:10:39.483Z,99769.63
2023-04-02T01:13:23.186Z,99765.47
2023-04-02T01:15:58.941Z,99767.66
2023-04-02T01:18:40.773Z,99766.81
2023-04-02T01:21:21.849Z,99766.13
2023-04-02T01:24:08.215Z,99776.41
2023-04-02T01:26:54.076Z,99773.91
2023-04-02T01:29:28.827Z,99779.72
2023-04-02T01:32:06.116Z,99787.50
2023-04-02T01:34:36.366Z,99781.25
2023-04-02T01:37:28.768Z,99789.00
2023-04-02T01:40:11.832Z,99783.59
2023-04-02T01:42:48.056Z,99788.63
2023-04-02T01:45:22.745Z,99795.38
2023-04-02T01:47:52.205Z,99799.72
2023-04-02T01:50:31.455Z,99806.09
2023-04-02T01:53:03.076Z,99805.66
2023-04-02T01:55:37.696Z,99806.50
2023-04-02T01:58:06.808Z,99810.94
2023-04-02T02:00:38.637Z,99811.63
2023-04-02T02:03:09.375Z,99816.75
2023-04-02T02:05:38.350Z,99815.91
2023-04-02T02:08:09.006Z,99814.97
2023-04-02T02:10:40.804Z,99816.88
2023-04-02T02:13:15.920Z,99822.03
2023-04-02T02:15:45.748Z,99819.25
2023-04-02T02:18:15.497Z,99823.56
2023-04-02T02:20:45.992Z,99825.34
2023-04-02T02:23:15.181Z,99833.25
2023-04-02T02:25:46.884Z,99835.06
2023-04-02T02:28:22.327Z,99829.50
2023-04-02T02:31:00.392Z,99838.13
2023-04-02T02:33:33.624Z,99843.66
2023-04-02T02:36:09.572Z,99849.78
2023-04-02T02:38:54.116Z,99856.69
2023-04-02T02:41:44.929Z,99850.59
2023-04-02T02:44:19.283Z,99857.81
2023-04-02T02:46:54.022Z,99865.84
2023-04-02T02:49:25.685Z,99861.28
2023-04-02T02:51:59.595Z,99870.00
2023-04-02T02:54:37.530Z,99870.84
2023-04-02T02:57:13.682Z,99867.25
2023-04-02T02:59:44.801Z,99873.50
2023-04-02T03:02:16.802Z,99880.97
2023-04-02T03:04:53.147Z,99882.63
2023-04-02T03:07:26.727Z,99880.84
2023-04-02T03:10:05.923Z,99885.13
2023-04-02T03:12:43.460Z,99883.47
2023-04-02T03:15:24.353Z,99895.78
2023-04-02T03:17:59.822Z,99898.56
2023-04-02T03:20:38.457Z,99900.25
2023-04-02T03:23:14.784Z,99903.00
2023-04-02T03:25:48.745Z,99910.22
2023-04-02T03:28:26.738Z,99911.03
2023-04-02T03:31:02.504Z,99912.88
2023-04-02T03:33:42.273Z,99914.66
2023-04-02T03:36:23.205Z,99926.03
2023-04-02T03:38:57.211Z,99927.94
2023-04-02T03:41:35.322Z,99935.03
2023-04-02T03:44:16.053Z,99938.50
2023-04-02T03:46:48.873Z,99940.16
2023-04-02T03:49:26.886Z,99936.81
2023-04-02T03:52:06.260Z,99941.00
2023-04-02T03:54:35.850Z,99949.88
2023-04-02T03:57:10.850Z,99947.38
2023-04-02T03:59:45.138Z,99954.28
2023-04-02T04:02:28.270Z,99957.91
2023-04-02T04:04:58.095Z,99966.66
2023-04-02T04:07:33.704Z,99971.19
2023-04-02T04:10:04.293Z,99976.63
2023-04-02T04:12:37.030Z,99969.53
2023-04-02T04:15:15.330Z,99972.75
2023-04-02T04:17:54.124Z,99980.81
2023-04-02T04:20:35.478Z,99990.38
2023-04-02T04:23:18.265Z,99984.94
2023-04-02T04:25:49.444Z,99986.75
2023-04-02T04:28:28.028Z,99991.91
2023-04-02T04:31:02.086Z,99999.81
2023-04-02T04:33:41.198Z,100002.44
2023-04-02T04:36:28.403Z,100001.47
2023-04-02T04:39:09.430Z,100011.16
2023-04-02T04:41:41.394Z,100012.00
2023-04-02T04:44:18.207Z,100019.91
2023-04-02T04:46:53.945Z,100020.59
2023-04-02T04:49:32.238Z,100019.75
2023-04-02T04:52:10.066Z,100028.63
2023-04-02T04:54:40.534Z,100033.09
2023-04-02T04:57:29.085Z,100038.19
2023-04-02T05:00:16.526Z,100046.09
2023-04-02T05:02:50.514Z,100042.78
2023-04-02T05:05:22.676Z,100050.56
2023-04-02T05:08:00.159Z,100054.97
2023-04-02T05:10:36.206Z,100051.66
2023-04-02T05:13:11.041Z,100060.53
2023-04-02T05:15:44.564Z,100060.41
2023-04-02T05:18:23.018Z,100071.53
2023-04-02T05:20:57.889Z,100075.81
2023-04-02T05:23:34.127Z,100079.16
2023-04-02T05:26:10.417Z,100079.16
2023-04-02T05:28:44.336Z,100086.09
2023-04-02T05:31:18.438Z,100088.72
2023-04-02T05:33:48.505Z,100092.03
2023-04-02T05:36:22.393Z,100096.38
2023-04-02T05:38:58.012Z,100097.75
2023-04-02T05:41:40.414Z,100101.09
2023-04-02T05:44:17.481Z,100104.69
2023-04-02T05:46:51.191Z,100101.94
2023-04-02T05:49:31.095Z,100112.88
2023-04-02T05:52:04.947Z,100124.81
2023-04-02T05:54:46.038Z,100124.56
2023-04-02T05:57:29.552Z,100126.13
2023-04-02T06:00:14.414Z,100131.09
2023-04-02T06:02:51.420Z,100131.69
2023-04-02T06:05:25.310Z,100135.28
2023-04-02T06:07:59.534Z,100141.94
2023-04-02T06:10:33.835Z,100146.97
2023-04-02T06:13:07.457Z,100146.00
2023-04-02T06:15:40.786Z,100157.97
2023-04-02T06:18:17.960Z,100160.59
2023-04-02T06:20:47.932Z,100168.75
2023-04-02T06:23:31.579Z,100169.56
2023-04-02T06:26:11.465Z,100174.63
2023-04-02T06:28:46.551Z,100183.66
2023-04-02T06:31:25.059Z,100188.72
2023-04-02T06:34:01.173Z,100200.47
2023-04-02T06:36:34.214Z,100204.09
2023-04-02T06:39:17.766Z,100203.25
2023-04-02T06:41:48.019Z,100214.63
2023-04-02T06:44:36.715Z,100219.81
2023-04-02T06:47:31.349Z,100223.03
2023-04-02T06:50:07.260Z,100234.84
2023-04-02T06:52:41.894Z,100239.03
2023-04-02T06:55:30.111Z,100232.88
2023-04-02T06:58:02.235Z,100242.81
2023-04-02T07:00:38.882Z,100248.09
2023-04-02T07:03:16.948Z,100249.97
2023-04-02T07:05:50.271Z,100261.06
2023-04-02T07:08:18.917Z,100262.03
2023-04-02T07:10:50.040Z,100270.97
2023-04-02T07:13:22.741Z,100281.19
2023-04-02T07:15:53.947Z,100281.50
2023-04-02T07:18:27.961Z,100288.59
2023-04-02T07:20:58.714Z,100291.94
2023-04-02T07:23:27.559Z,100294.09
2023-04-02T07:25:57.495Z,100301.28
2023-04-02T07:28:31.088Z,100308.97
2023-04-02T07:31:00.238Z,100317.75
2023-04-02T07:33:32.405Z,100321.06
2023-04-02T07:36:04.423Z,100324.31
2023-04-02T07:38:32.366Z,100329.97
2023-04-02T07:41:06.629Z,100342.44
2023-04-02T07:43:36.579Z,100348.31
2023-04-02T07:46:05.625Z,100358.72
2023-04-02T07:48:36.491Z,100361.09
2023-04-02T07:51:04.827Z,100370.81
2023-04-02T07:53:35.502Z,100374.66
2023-04-02T07:56:07.406Z,100374.88
2023-04-02T07:58:41.953Z,100377.50
2023-04-02T08:01:19.530Z,100383.13
2023-04-02T08:03:48.387Z,100392.97
2023-04-02T08:06:17.941Z,100404.81
2023-04-02T08:08:48.110Z,100408.75
2023-04-02T08:11:17.022Z,100415.44
2023-04-02T08:13:46.552Z,100425.72
2023-04-02T08:16:17.470Z,100428.00
2023-04-02T08:18:48.773Z,100426.56
2023-04-02T08:21:18.126Z,100434.94
2023-04-02T08:23:47.148Z,100444.63
2023-04-02T08:26:19.958Z,100448.34
2023-04-02T08:28:50.327Z,100453.22
2023-04-02T08:31:19.069Z,100448.28
2023-04-02T08:33:47.305Z,100455.13
2023-04-02T08:36:17.428Z,100472.13
2023-04-02T08:38:45.691Z,100474.53
2023-04-02T08:41:27.924Z,100482.34
2023-04-02T08:44:37.541Z,100475.34
2023-04-02T08:47:07.980Z,100488.06
2023-04-02T08:49:41.673Z,100493.09
2023-04-02T08:52:22.747Z,100506.28
2023-04-02T08:54:53.348Z,100507.59
2023-04-02T08:57:32.927Z,100513.38
2023-04-02T09:00:10.625Z,100519.94
2023-04-02T09:02:43.362Z,100527.09
2023-04-02T09:05:24.474Z,100532.88
2023-04-02T09:07:54.334Z,100538.13
2023-04-02T09:10:32.617Z,100537.28
2023-04-02T09:13:02.805Z,100541.09
2023-04-02T09:15:36.828Z,100557.03
2023-04-02T09:18:15.140Z,100550.47
2023-04-02T09:20:44.324Z,100554.66
2023-04-02T09:23:22.480Z,100562.31
2023-04-02T09:26:03.559Z,100564.72
2023-04-02T09:28:33.182Z,100566.03
2023-04-02T09:31:13.091Z,100570.72
2023-04-02T09:33:46.005Z,100583.31
2023-04-02T09:36:29.333Z,100584.84
2023-04-02T09:39:06.971Z,100589.06
2023-04-02T09:41:38.913Z,100593.47
2023-04-02T09:44:14.632Z,100603.09
2023-04-02T09:46:52.886Z,100602.38
2023-04-02T09:49:26.061Z,100611.81
2023-04-02T09:52:10.041Z,100618.56
2023-04-02T09:54:42.049Z,100616.13
2023-04-02T09:57:27.786Z,100625.09
2023-04-02T10:00:30.752Z,100626.44
2023-04-02T10:03:05.639Z,100634.00
2023-04-02T10:08:19.113Z,100643.13
2023-04-02T10:10:51.616Z,100653.31
2023-04-02T10:13:28.356Z,100658.06
2023-04-02T10:16:01.625Z,100666.56
2023-04-02T10:18:53.094Z,100675.78
2023-04-02T10:21:26.941Z,100680.81
2023-04-02T10:23:59.179Z,100683.19
2023-04-02T10:26:46.796Z,100684.75
2023-04-02T10:29:29.812Z,100693.63
2023-04-02T10:32:04.203Z,100690.50
2023-04-02T10:34:43.961Z,100704.63
2023-04-02T10:37:50.916Z,100709.66
2023-04-02T10:40:28.326Z,100720.78
2023-04-02T10:43:10.432Z,100715.59
2023-04-02T10:45:47.581Z,100722.09
2023-04-02T10:48:27.081Z,100728.19
2023-04-02T10:51:04.748Z,100731.13
2023-04-02T10:53:40.862Z,100723.94
2023-04-02T10:56:14.720Z,100723.69
2023-04-02T10:58:52.686Z,100735.69
2023-04-02T11:01:26.101Z,100739.91
2023-04-02T11:04:02.471Z,100745.28
2023-04-02T11:06:40.987Z,100741.69
2023-04-02T11:09:17.909Z,100751.59
2023-04-02T11:11:54.646Z,100751.50
2023-04-02T11:14:26.029Z,100760.53
2023-04-02T11:16:56.759Z,100756.78
2023-04-02T11:19:27.807Z,100767.56
2023-04-02T11:22:01.326Z,100766.97
2023-04-02T11:24:38.147Z,100778.06
2023-04-02T11:27:09.552Z,100777.25
2023-04-02T11:29:40.092Z,100778.03
2023-04-02T11:32:35.714Z,100787.00
2023-04-02T11:35:40.918Z,100790.81
2023-04-02T11:38:54.995Z,100792.19
2023-04-02T11:41:59.478Z,100805.00
2023-04-02T11:44:32.979Z,100808.09
2023-04-02T11:47:18.711Z,100811.56
2023-04-02T11:50:29.130Z,100819.13
2023-04-02T11:53:03.263Z,100817.56
2023-04-02T11:55:37.050Z,100826.28
2023-04-02T11:58:36.509Z,100833.28
2023-04-02T12:01:34.288Z,100833.88
2023-04-02T12:04:24.876Z,100838.56
2023-04-02T12:07:07.034Z,100850.34
2023-04-02T12:09:45.930Z,100842.44
2023-04-02T12:12:26.888Z,100851.22
2023-04-02T12:14:56.896Z,100858.38
2023-04-02T12:17:31.555Z,100864.94
2023-04-02T12:20:05.057Z,100868.00
2023-04-02T12:22:37.186Z,100867.28
2023-04-02T12:25:08.721Z,100873.00
2023-04-02T12:27:42.702Z,100875.13
2023-04-02T12:30:18.435Z,100883.78
2023-04-02T12:32:47.825Z,100884.59
2023-04-02T12:35:32.345Z,100890.91
2023-04-02T12:38:01.205Z,100898.69
2023-04-02T12:40:31.338Z,100899.00
2023-04-02T12:43:01.103Z,100899.00
2023-04-02T12:45:38.923Z,100900.59
2023-04-02T12:48:08.263Z,100903.47
2023-04-02T12:50:41.677Z,100907.06
2023-04-02T12:53:24.131Z,100915.38
2023-04-02T12:55:56.192Z,100912.22
2023-04-02T12:58:30.969Z,100930.28
2023-04-02T13:01:23.786Z,100930.81
2023-04-02T13:04:12.377Z,100929.56
2023-04-02T13:06:49.296Z,100932.91
2023-04-02T13:09:31.724Z,100930.91
2023-04-02T13:12:01.457Z,100938.63
2023-04-02T13:14:31.983Z,100943.88
2023-04-02T13:17:00.251Z,100946.53
2023-04-02T13:19:35.825Z,100948.53
2023-04-02T13:22:05.412Z,100953.47
2023-04-02T13:24:34.618Z,100954.75
2023-04-02T13:27:04.611Z,100953.69
2023-04-02T13:29:35.887Z,100961.19
2023-04-02T13:32:07.862Z,100958.75
2023-04-02T13:34:37.488Z,100968.00
2023-04-02T13:37:06.082Z,100979.06
2023-04-02T13:39:34.815Z,100981.88
2023-04-02T13:42:06.502Z,100987.25
2023-04-02T13:44:38.139Z,100984.59
2023-04-02T13:47:06.446Z,100996.16
2023-04-02T13:49:36.974Z,100990.81
2023-04-02T13:52:15.288Z,100985.84
2023-04-02T13:54:48.768Z,100995.31
2023-04-02T13:57:17.154Z,100999.50
2023-04-02T13:59:48.096Z,101003.00
2023-04-02T14:02:19.108Z,100995.84
2023-04-02T14:04:51.732Z,100996.06
2023-04-02T14:07:32.034Z,101009.88
2023-04-02T14:10:13.922Z,101014.91
2023-04-02T14:12:54.787Z,101020.00
2023-04-02T14:15:40.350Z,101022.16
2023-04-02T14:18:24.056Z,101030.03
2023-04-02T14:21:04.993Z,101036.97
2023-04-02T14:23:48.023Z,101048.31
2023-04-02T14:26:23.266Z,101053.28
2023-04-02T14:28:58.957Z,101054.47
2023-04-02T14:31:35.056Z,101052.22
2023-04-02T14:34:10.857Z,101054.81
2023-04-02T14:36:53.202Z,101060.56
2023-04-02T14:39:33.463Z,101067.13
2023-04-02T14:42:09.203Z,101063.44
2023-04-02T14:44:46.960Z,101074.88
2023-04-02T14:47:24.725Z,101074.38
2023-04-02T14:49:55.700Z,101076.81
2023-04-02T14:52:27.867Z,101082.44
2023-04-02T14:55:02.231Z,101088.06
2023-04-02T14:57:32.641Z,101085.28
2023-04-02T15:00:05.125Z,101082.66
2023-04-02T15:02:43.395Z,101089.28
2023-04-02T15:05:19.862Z,101094.63
2023-04-02T15:07:57.627Z,101094.75
2023-04-02T15:10:30.999Z,101101.19
2023-04-02T15:13:05.210Z,101109.66
2023-04-02T15:15:42.527Z,101113.78
2023-04-02T15:18:15.363Z,101116.59
2023-04-02T15:20:56.663Z,101111.34
2023-04-02T15:23:40.190Z,101125.78
2023-04-02T15:26:16.723Z,101114.16
2023-04-02T15:28:51.888Z,101126.28
2023-04-02T15:31:23.412Z,101126.38
2023-04-02T15:34:06.792Z,101124.97
2023-04-02T15:36:45.863Z,101128.25
2023-04-02T15:39:38.444Z,101137.03
2023-04-02T15:42:19.597Z,101131.78
2023-04-02T15:45:08.162Z,101135.91
2023-04-02T15:47:45.430Z,101138.34
2023-04-02T15:50:31.560Z,101137.03
2023-04-02T15:53:11.182Z,101135.91
2023-04-02T15:55:47.116Z,101142.28
2023-04-02T15:58:27.161Z,101146.81
2023-04-02T16:01:08.408Z,101155.34
2023-04-02T16:03:59.365Z,101163.34
2023-04-02T16:06:35.253Z,101169.09
2023-04-02T16:09:11.409Z,101180.41
2023-04-02T16:11:43.474Z,101179.59
2023-04-02T16:14:26.199Z,101185.22
2023-04-02T16:17:02.089Z,101189.09
2023-04-02T16:19:40.026Z,101189.06
2023-04-02T16:22:18.032Z,101190.09
2023-04-02T16:24:48.015Z,101191.88
2023-04-02T16:27:28.159Z,101193.00
2023-04-02T16:30:01.908Z,101203.91
2023-04-02T16:33:04.156Z,101197.53
2023-04-02T16:35:46.349Z,101196.22
2023-04-02T16:38:30.700Z,101214.69
2023-04-02T16:41:08.697Z,101216.47
2023-04-02T16:43:52.380Z,101216.00
2023-04-02T16:46:39.597Z,101226.97
2023-04-02T16:49:22.005Z,101226.13
2023-04-02T16:52:03.185Z,101229.28
2023-04-02T16:54:44.041Z,101239.72
2023-04-02T16:57:31.034Z,101237.09
2023-04-02T17:00:12.068Z,101245.16
2023-04-02T17:02:52.910Z,101253.72
2023-04-02T17:05:32.628Z,101259.88
2023-04-02T17:08:17.489Z,101269.16
2023-04-02T17:10:52.715Z,101272.81
2023-04-02T17:13:35.816Z,101271.56
2023-04-02T17:16:15.566Z,101285.69
2023-04-02T17:18:45.001Z,101291.13
2023-04-02T17:21:16.448Z,101299.97
2023-04-02T17:26:27.160Z,101304.84
2023-04-02T17:29:00.331Z,101316.56
2023-04-02T17:31:34.135Z,101318.16
2023-04-02T17:34:10.841Z,101330.69
2023-04-02T17:36:45.284Z,101337.13
2023-04-02T17:39:23.032Z,101351.19
2023-04-02T17:41:57.912Z,101353.13
2023-04-02T17:44:40.984Z,101358.53
2023-04-02T17:47:17.613Z,101364.03
2023-04-02T17:49:59.360Z,101367.59
2023-04-02T17:52:34.270Z,101372.00
2023-04-02T17:55:12.330Z,101376.13
2023-04-02T17:58:01.040Z,101383.94
2023-04-02T18:00:51.143Z,101379.63
2023-04-02T18:03:35.771Z,101385.94
2023-04-02T18:06:07.594Z,101397.38
2023-04-02T18:08:51.025Z,101402.94
2023-04-02T18:11:32.609Z,101400.06
2023-04-02T18:14:18.633Z,101415.06
2023-04-02T18:16:53.888Z,101415.06
2023-04-02T18:19:34.445Z,101420.25
2023-04-02T18:22:15.679Z,101421.63
2023-04-02T18:25:14.930Z,101419.81
2023-04-02T18:27:56.143Z,101424.56
2023-04-02T18:30:32.104Z,101426.88
2023-04-02T18:33:20.509Z,101428.06
2023-04-02T18:36:00.866Z,101439.72
2023-04-02T18:38:44.177Z,101443.03
2023-04-02T18:41:40.716Z,101443.19
2023-04-02T18:44:23.669Z,101456.63
2023-04-02T18:46:57.716Z,101449.66
2023-04-02T18:49:29.614Z,101450.69
2023-04-02T18:52:03.317Z,101464.88
2023-04-02T18:54:37.885Z,101467.81
2023-04-02T18:57:13.315Z,101467.03
2023-04-02T18:59:45.899Z,101477.28
2023-04-02T19:02:29.040Z,101479.91
2023-04-02T19:05:04.023Z,101481.16
2023-04-02T19:07:37.514Z,101485.34
2023-04-02T19:10:28.309Z,101497.06
2023-04-02T19:12:56.964Z,101491.81
2023-04-02T19:15:37.670Z,101488.16
2023-04-02T19:18:17.426Z,101492.34
2023-04-02T19:20:52.374Z,101498.50
2023-04-02T19:23:38.540Z,101496.94
2023-04-02T19:26:12.670Z,101502.38
2023-04-02T19:28:47.769Z,101504.97
2023-04-02T19:31:31.467Z,101506.13
2023-04-02T19:34:16.578Z,101508.00
2023-04-02T19:36:53.097Z,101509.13
2023-04-02T19:39:47.000Z,101520.72
2023-04-02T19:42:36.166Z,101515.06
2023-04-02T19:45:05.594Z,101531.66
2023-04-02T19:47:36.555Z,101537.97
2023-04-02T19:50:10.131Z,101540.69
2023-04-02T19:52:40.627Z,101531.97
2023-04-02T19:55:11.196Z,101539.91
2023-04-02T19:57:40.253Z,101532.03
2023-04-02T20:00:12.575Z,101537.91
2023-04-02T20:02:43.075Z,101545.31
2023-04-02T20:05:15.465Z,101535.88
2023-04-02T20:07:43.500Z,101539.19
2023-04-02T20:10:13.808Z,101546.16
2023-04-02T20:12:41.849Z,101554.88
2023-04-02T20:15:12.686Z,101553.63
2023-04-02T20:17:41.109Z,101546.22
2023-04-02T20:20:16.273Z,101545.81
2023-04-02T20:22:45.223Z,101548.81
2023-04-02T20:25:14.260Z,101553.50
2023-04-02T20:27:42.686Z,101555.69
2023-04-02T20:30:11.527Z,101563.78
2023-04-02T20:32:47.473Z,101560.63
2023-04-02T20:35:17.684Z,101567.78
2023-04-02T20:37:48.722Z,101567.84
2023-04-02T20:40:18.917Z,101566.84
2023-04-02T20:42:47.762Z,101583.34
2023-04-02T20:45:19.198Z,101581.78
2023-04-02T20:47:48.108Z,101586.88
2023-04-02T20:50:20.781Z,101582.41
2023-04-02T20:52:48.950Z,101586.66
2023-04-02T20:55:17.509Z,101591.97
2023-04-02T20:57:45.807Z,101593.81
2023-04-02T21:00:18.571Z,101602.53
2023-04-02T21:02:47.053Z,101603.38
2023-04-02T21:05:19.381Z,101605.06
2023-04-02T21:07:51.650Z,101606.13
2023-04-02T21:10:24.026Z,101608.59
2023-04-02T21:12:53.258Z,101619.72
2023-04-02T21:15:25.905Z,101614.50
2023-04-02T21:17:56.869Z,101616.19
2023-04-02T21:20:29.213Z,101625.75
2023-04-02T21:22:58.112Z,101616.25
2023-04-02T21:25:26.356Z,101625.25
2023-04-02T21:27:54.953Z,101625.25
2023-04-02T21:30:23.469Z,101624.47
2023-04-02T21:32:52.813Z,101620.16
2023-04-02T21:35:21.264Z,101627.88
2023-04-02T21:37:52.933Z,101622.63
2023-04-02T21:40:22.499Z,101618.38
2023-04-02T21:42:50.392Z,101622.91
2023-04-02T21:45:18.847Z,101624.75
2023-04-02T21:47:47.159Z,101624.81
2023-04-02T21:50:22.609Z,101618.81
2023-04-02T21:52:52.565Z,101618.09
2023-04-02T21:55:21.050Z,101624.09
2023-04-02T21:57:51.601Z,101625.09
2023-04-02T22:00:21.204Z,101621.75
2023-04-02T22:02:49.528Z,101629.34
2023-04-02T22:05:17.840Z,101627.66
2023-04-02T22:07:48.819Z,101628.50
2023-04-02T22:10:19.410Z,101627.91
2023-04-02T22:12:52.737Z,101631.47
2023-04-02T22:15:21.196Z,101630.63
2023-04-02T22:17:52.363Z,101631.47
2023-04-02T22:20:22.291Z,101630.41
2023-04-02T22:22:51.840Z,101629.56
2023-04-02T22:25:21.772Z,101629.59
2023-04-02T22:27:51.953Z,101624.53
2023-04-02T22:30:20.375Z,101635.00
2023-04-02T22:32:52.189Z,101636.69
2023-04-02T22:35:20.936Z,101638.53
2023-04-02T22:37:48.941Z,101635.16
2023-04-02T22:40:18.279Z,101629.00
2023-04-02T22:42:48.943Z,101634.22
2023-04-02T22:45:18.341Z,101632.66
2023-04-02T22:47:46.980Z,101636.03
2023-04-02T22:50:15.917Z,101636.97
2023-04-02T22:52:47.875Z,101638.59
2023-04-02T22:55:17.934Z,101628.19
2023-04-02T22:57:49.921Z,101631.66
2023-04-02T23:00:20.444Z,101630.91
2023-04-02T23:02:48.695Z,101631.72
2023-04-02T23:05:17.098Z,101632.66
2023-04-02T23:07:46.153Z,101645.75
2023-04-02T23:10:17.733Z,101645.63
2023-04-02T23:12:50.560Z,101652.56
2023-04-02T23:15:19.035Z,101648.09
2023-04-02T23:17:47.263Z,101648.88
2023-04-02T23:20:17.020Z,101649.00
2023-04-02T23:22:47.517Z,101656.09
2023-04-02T23:25:17.196Z,101663.94
2023-04-02T23:27:45.523Z,101659.53
2023-04-02T23:30:15.529Z,101657.78
2023-04-02T23:32:45.762Z,101668.38
2023-04-02T23:35:16.483Z,101660.53
2023-04-02T23:37:44.456Z,101658.88
2023-04-02T23:40:17.609Z,101661.50
2023-04-02T23:42:45.743Z,101658.00
2023-04-02T23:45:17.568Z,101657.09
2023-04-02T23:47:45.991Z,101652.56
2023-04-02T23:50:14.183Z,101654.25
2023-04-02T23:52:42.498Z,101655.22
2023-04-02T23:55:12.226Z,101653.53
2023-04-02T23:57:44.144Z,101656.22
